Time;durP1;ratioP1;P1;durP2;ratioP2;P2;SDS_P1;SDS_P2;PMS_P1;PMS_P2;Temp;Humidity;BMP_temperature;BMP_pressure;BME280_temperature;BME280_humidity;BME280_pressure;Samples;Min_cycle;Max_cycle;Signal;HPM_P1;HPM_P2
2022/08/10 00:01:11;;;;;;;4.32;2.30;;;;;;;;;;5010134;28;20108;-79
2022/08/10 00:03:37;;;;;;;6.75;2.50;;;;;;;;;;5009833;28;20063;-76
2022/08/10 00:06:02;;;;;;;5.72;2.33;;;;;;;;;;5009719;28;20078;-78
2022/08/10 00:08:28;;;;;;;3.30;2.20;;;;;;;;;;5009803;28;20038;-78
2022/08/10 00:10:55;;;;;;;3.67;2.05;;;;;;;;;;5009716;28;20021;-78
2022/08/10 00:13:21;;;;;;;4.78;2.15;;;;;;;;;;5009635;28;20485;-78
2022/08/10 00:15:47;;;;;;;3.85;1.88;;;;;;;;;;5009952;28;20087;-78
2022/08/10 00:18:13;;;;;;;4.60;1.90;;;;;;;;;;5009927;28;20063;-78
2022/08/10 00:20:38;;;;;;;3.45;2.20;;;;;;;;;;5009689;28;20583;-78
2022/08/10 00:23:04;;;;;;;5.15;1.95;;;;;;;;;;5009444;28;20022;-78
2022/08/10 00:25:29;;;;;;;4.63;2.10;;;;;;;;;;5009627;28;20045;-78
2022/08/10 00:27:54;;;;;;;5.85;1.98;;;;;;;;;;5009396;28;20025;-78
2022/08/10 00:30:20;;;;;;;4.68;2.03;;;;;;;;;;5009545;28;20106;-77
2022/08/10 00:32:45;;;;;;;4.47;2.05;;;;;;;;;;5009312;28;20037;-77
2022/08/10 00:35:11;;;;;;;2.95;1.90;;;;;;;;;;5009421;28;20034;-77
2022/08/10 00:37:36;;;;;;;4.80;2.10;;;;;;;;;;5009402;28;20026;-78
2022/08/10 00:40:03;;;;;;;5.47;2.20;;;;;;;;;;5009495;28;20030;-78
2022/08/10 00:42:29;;;;;;;5.63;2.20;;;;;;;;;;5009317;28;20094;-77
2022/08/10 00:44:54;;;;;;;4.18;2.17;;;;;;;;;;5009185;28;20030;-78
2022/08/10 00:47:21;;;;;;;4.70;2.20;;;;;;;;;;5009336;28;20079;-78
2022/08/10 00:49:47;;;;;;;6.03;2.30;;;;;;;;;;5009353;28;20014;-78
2022/08/10 00:52:13;;;;;;;3.30;2.10;;;;;;;;;;5009169;28;20472;-77
2022/08/10 00:54:41;;;;;;;5.07;2.20;;;;;;;;;;5008980;28;20452;-79
2022/08/10 00:57:06;;;;;;;5.13;2.20;;;;;;;;;;5009134;28;20505;-78
2022/08/10 00:59:32;;;;;;;4.63;2.30;;;;;;;;;;5009243;28;20026;-78
2022/08/10 01:01:59;;;;;;;3.25;1.90;;;;;;;;;;5008954;28;20086;-78
2022/08/10 01:04:24;;;;;;;3.40;2.13;;;;;;;;;;5008389;28;20382;-78
2022/08/10 01:07:18;;;;;;;3.35;2.17;;;;;;;;;;5009007;28;20497;-78
2022/08/10 01:10:08;;;;;;;3.20;2.25;;;;;;;;;;5009137;28;20034;-78
2022/08/10 01:12:47;;;;;;;3.33;2.30;;;;;;;;;;5008993;28;20524;-78
2022/08/10 01:15:12;;;;;;;5.38;2.20;;;;;;;;;;5008839;28;20033;-78
2022/08/10 01:17:50;;;;;;;4.63;2.45;;;;;;;;;;5008780;28;20371;-78
2022/08/10 01:20:33;;;;;;;4.82;2.10;;;;;;;;;;5008715;28;20026;-78
2022/08/10 01:23:26;;;;;;;6.50;2.38;;;;;;;;;;5008500;28;20037;-77
2022/08/10 01:26:12;;;;;;;3.88;2.10;;;;;;;;;;5008789;28;20113;-78
2022/08/10 01:28:55;;;;;;;4.90;2.20;;;;;;;;;;5007335;28;20061;-78
2022/08/10 01:31:27;;;;;;;4.03;2.20;;;;;;;;;;5008809;28;20030;-78
2022/08/10 01:34:06;;;;;;;4.70;2.20;;;;;;;;;;5007213;28;20537;-78
2022/08/10 01:36:43;;;;;;;3.28;2.10;;;;;;;;;;5008429;28;20109;-78
2022/08/10 01:39:12;;;;;;;13.57;2.08;;;;;;;;;;5008453;28;20108;-79
2022/08/10 01:41:42;;;;;;;4.13;1.98;;;;;;;;;;5008405;28;20084;-78
2022/08/10 01:44:17;;;;;;;4.20;2.15;;;;;;;;;;5008373;28;20033;-78
2022/08/10 01:46:49;;;;;;;4.72;2.13;;;;;;;;;;5008536;28;20061;-78
2022/08/10 01:49:17;;;;;;;3.17;2.08;;;;;;;;;;5008625;28;20461;-78
2022/08/10 01:51:50;;;;;;;3.45;2.05;;;;;;;;;;5008362;28;20064;-78
2022/08/10 01:54:19;;;;;;;4.43;2.05;;;;;;;;;;5007915;28;20030;-78
2022/08/10 01:56:52;;;;;;;3.67;2.20;;;;;;;;;;5008273;28;20066;-78
2022/08/10 01:59:23;;;;;;;2.53;1.85;;;;;;;;;;5008524;28;20082;-78
2022/08/10 02:01:51;;;;;;;5.20;2.10;;;;;;;;;;5008368;28;20034;-76
2022/08/10 02:04:18;;;;;;;4.70;2.00;;;;;;;;;;5007752;28;20677;-78
2022/08/10 02:06:48;;;;;;;3.17;2.20;;;;;;;;;;5007309;28;20059;-78
2022/08/10 02:09:23;;;;;;;3.28;2.08;;;;;;;;;;5008150;28;20509;-78
2022/08/10 02:11:50;;;;;;;3.35;2.30;;;;;;;;;;5008052;28;20041;-78
2022/08/10 02:14:17;;;;;;;4.10;2.30;;;;;;;;;;5007685;28;20068;-78
2022/08/10 02:16:46;;;;;;;6.00;2.10;;;;;;;;;;5007794;28;20470;-78
2022/08/10 02:19:16;;;;;;;3.75;2.17;;;;;;;;;;5008135;28;20508;-77
2022/08/10 02:21:43;;;;;;;2.92;2.13;;;;;;;;;;5007921;28;20022;-78
2022/08/10 02:24:12;;;;;;;5.70;2.20;;;;;;;;;;5007832;28;20398;-79
2022/08/10 02:26:40;;;;;;;7.30;2.20;;;;;;;;;;5007803;28;20038;-77
2022/08/10 02:29:08;;;;;;;3.53;2.47;;;;;;;;;;5007654;28;20030;-79
2022/08/10 02:31:36;;;;;;;3.75;2.40;;;;;;;;;;5008080;28;20033;-78
2022/08/10 02:34:02;;;;;;;3.10;2.00;;;;;;;;;;5007440;28;20064;-78
2022/08/10 02:36:31;;;;;;;3.47;2.20;;;;;;;;;;5007557;28;20470;-78
2022/08/10 02:39:01;;;;;;;3.20;2.10;;;;;;;;;;5007807;28;20504;-77
2022/08/10 02:41:57;;;;;;;3.40;2.20;;;;;;;;;;5007616;28;20026;-78
2022/08/10 02:44:42;;;;;;;5.10;2.20;;;;;;;;;;5010837;28;20128;-78
2022/08/10 02:47:12;;;;;;;4.60;2.10;;;;;;;;;;5007482;28;20097;-78
2022/08/10 02:49:41;;;;;;;3.87;2.00;;;;;;;;;;5007406;28;20639;-78
2022/08/10 02:52:13;;;;;;;2.78;2.00;;;;;;;;;;5007497;28;20022;-77
2022/08/10 02:54:50;;;;;;;2.35;1.85;;;;;;;;;;5007287;28;20540;-78
2022/08/10 02:57:23;;;;;;;4.07;2.13;;;;;;;;;;5007666;28;20030;-79
2022/08/10 02:59:52;;;;;;;4.47;2.13;;;;;;;;;;5007511;28;20030;-78
2022/08/10 03:02:34;;;;;;;5.93;2.03;;;;;;;;;;5007423;28;20036;-78
2022/08/10 03:05:03;;;;;;;6.05;2.10;;;;;;;;;;5006960;28;20062;-78
2022/08/10 03:07:42;;;;;;;3.47;2.00;;;;;;;;;;5007192;28;20444;-77
2022/08/10 03:10:13;;;;;;;4.03;2.00;;;;;;;;;;5006052;28;20090;-79
2022/08/10 03:12:41;;;;;;;5.13;2.20;;;;;;;;;;5007279;28;20030;-79
2022/08/10 03:15:09;;;;;;;3.13;2.13;;;;;;;;;;5007153;28;20033;-77
2022/08/10 03:17:36;;;;;;;3.53;1.90;;;;;;;;;;5007227;28;20099;-78
2022/08/10 03:20:02;;;;;;;3.33;2.22;;;;;;;;;;5009058;28;20022;-79
2022/08/10 03:22:28;;;;;;;4.03;2.20;;;;;;;;;;5010340;28;20029;-78
2022/08/10 03:24:54;;;;;;;3.58;2.10;;;;;;;;;;5010477;28;20026;-78
2022/08/10 03:27:22;;;;;;;4.35;2.00;;;;;;;;;;5010515;28;20075;-78
2022/08/10 03:29:48;;;;;;;3.20;2.00;;;;;;;;;;5010603;28;20527;-78
2022/08/10 03:32:14;;;;;;;3.00;1.90;;;;;;;;;;5010401;28;20030;-78
2022/08/10 03:34:40;;;;;;;2.65;1.80;;;;;;;;;;5010283;28;20393;-77
2022/08/10 03:37:06;;;;;;;5.82;2.00;;;;;;;;;;5010285;28;20112;-78
2022/08/10 03:39:31;;;;;;;4.22;2.00;;;;;;;;;;5010322;28;20110;-78
2022/08/10 03:41:59;;;;;;;3.05;2.00;;;;;;;;;;5010200;28;20105;-78
2022/08/10 03:44:28;;;;;;;3.85;2.10;;;;;;;;;;5009916;28;20022;-78
2022/08/10 03:46:57;;;;;;;4.38;2.00;;;;;;;;;;5010297;28;20471;-79
2022/08/10 03:49:25;;;;;;;4.28;2.03;;;;;;;;;;5010319;28;20022;-76
2022/08/10 03:51:50;;;;;;;5.25;2.00;;;;;;;;;;5010306;28;20117;-78
2022/08/10 03:54:17;;;;;;;4.72;2.20;;;;;;;;;;5010205;28;20125;-78
2022/08/10 03:56:43;;;;;;;5.40;2.10;;;;;;;;;;5010008;28;20033;-78
2022/08/10 03:59:11;;;;;;;5.57;2.15;;;;;;;;;;5009867;28;20549;-78
2022/08/10 04:01:37;;;;;;;4.13;2.00;;;;;;;;;;5009927;28;20030;-78
2022/08/10 04:04:02;;;;;;;3.15;2.00;;;;;;;;;;5009626;28;20434;-77
2022/08/10 04:06:28;;;;;;;4.35;2.33;;;;;;;;;;5010058;28;20067;-77
2022/08/10 04:08:54;;;;;;;4.45;2.00;;;;;;;;;;5008687;28;20022;-78
2022/08/10 04:11:20;;;;;;;3.60;2.00;;;;;;;;;;5010175;28;20033;-78
2022/08/10 04:13:45;;;;;;;4.68;2.00;;;;;;;;;;5009787;28;20037;-78
2022/08/10 04:16:10;;;;;;;3.75;2.10;;;;;;;;;;5009336;28;20202;-78
2022/08/10 04:18:36;;;;;;;3.75;2.05;;;;;;;;;;5009857;28;20407;-78
2022/08/10 04:21:07;;;;;;;4.32;1.98;;;;;;;;;;5009939;28;20074;-78
2022/08/10 04:23:37;;;;;;;6.70;2.20;;;;;;;;;;5009599;28;20034;-78
2022/08/10 04:26:03;;;;;;;;;;;;;;;;;;5010202;28;20025;-78
2022/08/10 04:28:30;;;;;;;5.88;2.40;;;;;;;;;;5009645;28;19913;-77
2022/08/10 04:30:57;;;;;;;4.82;2.10;;;;;;;;;;5009064;28;20026;-78
2022/08/10 04:33:24;;;;;;;4.28;2.20;;;;;;;;;;5008150;28;20118;-78
2022/08/10 04:35:51;;;;;;;6.20;2.20;;;;;;;;;;5009391;28;20052;-77
2022/08/10 04:38:17;;;;;;;4.00;2.10;;;;;;;;;;5009425;28;20114;-78
2022/08/10 04:40:45;;;;;;;4.05;2.05;;;;;;;;;;5009429;28;20034;-78
2022/08/10 04:43:11;;;;;;;5.78;2.35;;;;;;;;;;5009485;28;20501;-78
2022/08/10 04:45:37;;;;;;;5.45;2.20;;;;;;;;;;5009263;28;20026;-79
2022/08/10 04:48:03;;;;;;;6.35;2.20;;;;;;;;;;5008019;28;20030;-78
2022/08/10 04:50:29;;;;;;;4.47;2.28;;;;;;;;;;5009182;28;20037;-77
2022/08/10 04:52:54;;;;;;;5.32;2.45;;;;;;;;;;5008979;28;20028;-78
2022/08/10 04:55:20;;;;;;;8.68;2.20;;;;;;;;;;5009093;28;20130;-78
2022/08/10 04:57:45;;;;;;;6.53;2.40;;;;;;;;;;5009274;28;20429;-77
2022/08/10 05:00:11;;;;;;;7.28;2.00;;;;;;;;;;5009319;28;20385;-78
2022/08/10 05:02:36;;;;;;;5.32;2.15;;;;;;;;;;5009155;28;20026;-77
2022/08/10 05:05:02;;;;;;;4.57;2.13;;;;;;;;;;5008614;28;20097;-77
2022/08/10 05:07:27;;;;;;;4.40;2.35;;;;;;;;;;5008788;28;20048;-76
2022/08/10 05:09:53;;;;;;;8.75;2.38;;;;;;;;;;5009228;28;20037;-76
2022/08/10 05:12:19;;;;;;;6.85;2.15;;;;;;;;;;5008824;28;20057;-77
2022/08/10 05:14:44;;;;;;;3.80;1.83;;;;;;;;;;5008792;28;20651;-78
2022/08/10 05:17:10;;;;;;;3.03;2.03;;;;;;;;;;5009136;28;20030;-76
2022/08/10 05:19:36;;;;;;;5.28;2.20;;;;;;;;;;5008956;28;20405;-76
2022/08/10 05:22:03;;;;;;;3.97;2.13;;;;;;;;;;5008671;28;20396;-77
2022/08/10 05:24:29;;;;;;;5.15;2.10;;;;;;;;;;5008600;28;20109;-76
2022/08/10 05:26:54;;;;;;;6.80;2.20;;;;;;;;;;5008695;28;20141;-76
2022/08/10 05:29:19;;;;;;;4.00;2.20;;;;;;;;;;5008755;28;20022;-76
2022/08/10 05:31:45;;;;;;;6.68;2.40;;;;;;;;;;5008744;28;20025;-77
2022/08/10 05:34:10;;;;;;;7.13;2.25;;;;;;;;;;5008793;28;20034;-76
2022/08/10 05:36:36;;;;;;;5.13;2.20;;;;;;;;;;5008449;28;20588;-77
2022/08/10 05:39:02;;;;;;;5.78;2.17;;;;;;;;;;5008582;28;20397;-77
2022/08/10 05:41:28;;;;;;;6.18;2.30;;;;;;;;;;5007649;28;20527;-75
2022/08/10 05:43:56;;;;;;;7.57;2.50;;;;;;;;;;5008063;28;20034;-75
2022/08/10 05:46:22;;;;;;;7.32;2.20;;;;;;;;;;5008274;28;20082;-77
2022/08/10 05:48:48;;;;;;;6.00;2.45;;;;;;;;;;5008522;28;20018;-75
2022/08/10 05:51:15;;;;;;;7.05;2.45;;;;;;;;;;5008589;28;20038;-75
2022/08/10 05:53:40;;;;;;;8.90;2.60;;;;;;;;;;5008442;28;20030;-76
2022/08/10 05:56:07;;;;;;;14.57;2.67;;;;;;;;;;5008157;28;20036;-77
2022/08/10 05:58:34;;;;;;;8.15;3.20;;;;;;;;;;5008260;28;20037;-77
2022/08/10 06:01:04;;;;;;;4.80;2.45;;;;;;;;;;5008167;28;20032;-77
2022/08/10 06:03:35;;;;;;;4.80;2.20;;;;;;;;;;5007985;28;20112;-77
2022/08/10 06:06:02;;;;;;;6.18;2.63;;;;;;;;;;5007764;28;20776;-77
2022/08/10 06:08:31;;;;;;;8.73;2.65;;;;;;;;;;5007997;28;20046;-77
2022/08/10 06:11:00;;;;;;;5.97;2.38;;;;;;;;;;5008194;28;20114;-78
2022/08/10 06:16:14;;;;;;;11.52;2.67;;;;;;;;;;5007703;28;20033;-76
2022/08/10 06:18:40;;;;;;;7.90;2.40;;;;;;;;;;5007917;28;20026;-78
2022/08/10 06:21:08;;;;;;;6.28;2.20;;;;;;;;;;5007870;28;20037;-79
2022/08/10 06:23:35;;;;;;;4.13;2.30;;;;;;;;;;5007924;28;20042;-79
2022/08/10 06:26:01;;;;;;;4.10;2.30;;;;;;;;;;5006545;28;20025;-78
2022/08/10 06:28:30;;;;;;;9.35;2.80;;;;;;;;;;5007947;28;20030;-78
2022/08/10 06:30:56;;;;;;;4.30;2.72;;;;;;;;;;5007947;28;20025;-78
2022/08/10 06:33:23;;;;;;;7.75;2.50;;;;;;;;;;5007533;28;20105;-77
2022/08/10 06:35:52;;;;;;;8.93;2.35;;;;;;;;;;5007444;28;20512;-78
2022/08/10 06:38:18;;;;;;;9.32;2.60;;;;;;;;;;5007535;28;20105;-78
2022/08/10 06:40:47;;;;;;;7.97;2.60;;;;;;;;;;5006298;28;20508;-77
2022/08/10 06:43:16;;;;;;;6.68;2.33;;;;;;;;;;5007733;28;20033;-77
2022/08/10 06:45:46;;;;;;;5.53;2.50;;;;;;;;;;5007641;28;20518;-79
2022/08/10 06:48:25;;;;;;;6.45;2.53;;;;;;;;;;5007540;28;20525;-78
2022/08/10 06:50:56;;;;;;;7.30;2.40;;;;;;;;;;5007472;28;20069;-78
2022/08/10 06:53:22;;;;;;;;;;;;;;;;;;5007353;28;20477;-74
2022/08/10 06:56:04;;;;;;;10.70;2.60;;;;;;;;;;5007279;28;19913;-75
2022/08/10 06:58:36;;;;;;;10.52;2.85;;;;;;;;;;5007604;28;20145;-75
2022/08/10 07:01:05;;;;;;;4.88;2.40;;;;;;;;;;5006285;28;20052;-76
2022/08/10 07:03:35;;;;;;;4.43;2.20;;;;;;;;;;5007492;28;20501;-75
2022/08/10 07:06:03;;;;;;;9.27;2.47;;;;;;;;;;5007107;28;20654;-76
2022/08/10 07:08:32;;;;;;;6.88;2.42;;;;;;;;;;5007318;28;20053;-77
2022/08/10 07:11:00;;;;;;;10.15;2.50;;;;;;;;;;5007113;28;20053;-76
2022/08/10 07:13:27;;;;;;;7.10;2.42;;;;;;;;;;5007250;28;20090;-76
2022/08/10 07:15:53;;;;;;;8.43;2.55;;;;;;;;;;5007098;28;20030;-75
2022/08/10 07:18:20;;;;;;;10.77;2.42;;;;;;;;;;5007213;28;20397;-76
2022/08/10 07:20:47;;;;;;;8.95;2.30;;;;;;;;;;5007211;28;20032;-76
2022/08/10 07:23:13;;;;;;;5.70;2.35;;;;;;;;;;5007013;28;20034;-76
2022/08/10 07:25:41;;;;;;;3.55;2.17;;;;;;;;;;5006918;28;20026;-77
2022/08/10 07:28:07;;;;;;;4.63;2.10;;;;;;;;;;5007025;28;20026;-75
2022/08/10 07:30:36;;;;;;;5.05;2.40;;;;;;;;;;5006924;28;20054;-75
2022/08/10 07:33:03;;;;;;;7.97;2.33;;;;;;;;;;5007118;28;20026;-75
2022/08/10 07:35:31;;;;;;;4.05;2.10;;;;;;;;;;5005442;28;20504;-74
2022/08/10 07:38:01;;;;;;;2.63;2.10;;;;;;;;;;5006901;28;20029;-76
2022/08/10 07:40:28;;;;;;;4.97;2.20;;;;;;;;;;5006981;28;20105;-75
2022/08/10 07:42:57;;;;;;;8.45;2.22;;;;;;;;;;5006870;28;20057;-75
2022/08/10 07:45:27;;;;;;;3.85;2.10;;;;;;;;;;5006614;28;20630;-76
2022/08/10 07:48:03;;;;;;;5.30;2.00;;;;;;;;;;5006874;28;20037;-76
2022/08/10 07:50:29;;;;;;;5.65;2.20;;;;;;;;;;5005493;28;20120;-77
2022/08/10 07:53:00;;;;;;;7.72;2.22;;;;;;;;;;5006772;28;20034;-77
2022/08/10 07:55:27;;;;;;;3.95;2.08;;;;;;;;;;5007071;28;20113;-76
2022/08/10 07:57:55;;;;;;;5.88;2.10;;;;;;;;;;5006775;28;20064;-77
2022/08/10 08:00:21;;;;;;;2.55;1.98;;;;;;;;;;5006840;28;20022;-77
2022/08/10 08:02:50;;;;;;;4.05;2.00;;;;;;;;;;5006449;28;20034;-75
2022/08/10 08:05:19;;;;;;;7.65;2.03;;;;;;;;;;5007191;28;20061;-75
2022/08/10 08:07:46;;;;;;;9.40;1.90;;;;;;;;;;5008218;28;20490;-74
2022/08/10 08:10:15;;;;;;;5.63;2.00;;;;;;;;;;5009975;28;20030;-74
2022/08/10 08:12:41;;;;;;;6.20;2.10;;;;;;;;;;5009996;28;20025;-75
2022/08/10 08:15:10;;;;;;;2.67;2.00;;;;;;;;;;5009983;28;20038;-75
2022/08/10 08:17:37;;;;;;;8.00;2.10;;;;;;;;;;5009604;28;20049;-74
2022/08/10 08:20:03;;;;;;;7.20;2.00;;;;;;;;;;5009691;28;20074;-74
2022/08/10 08:22:29;;;;;;;5.18;1.83;;;;;;;;;;5009598;28;20026;-74
2022/08/10 08:24:56;;;;;;;6.57;1.90;;;;;;;;;;5009658;28;20093;-75
2022/08/10 08:27:23;;;;;;;3.22;1.80;;;;;;;;;;5009596;28;20053;-75
2022/08/10 08:29:50;;;;;;;4.85;1.73;;;;;;;;;;5009676;28;20030;-76
2022/08/10 08:32:21;;;;;;;6.25;2.10;;;;;;;;;;5009598;28;20022;-76
2022/08/10 08:34:51;;;;;;;4.72;2.00;;;;;;;;;;5009457;28;20026;-76
2022/08/10 08:37:18;;;;;;;4.43;1.88;;;;;;;;;;5009292;28;20026;-75
2022/08/10 08:39:44;;;;;;;6.38;2.03;;;;;;;;;;5009291;28;20026;-75
2022/08/10 08:42:45;;;;;;;3.92;1.70;;;;;;;;;;5009458;28;20413;-75
2022/08/10 08:45:30;;;;;;;4.47;1.90;;;;;;;;;;5031288;28;20038;-75
2022/08/10 08:48:32;;;;;;;6.90;1.98;;;;;;;;;;5009159;28;20034;-75
2022/08/10 08:51:06;;;;;;;7.70;2.05;;;;;;;;;;5029955;28;20516;-75
2022/08/10 08:54:28;;;;;;;6.50;1.92;;;;;;;;;;5009148;28;20030;-75
2022/08/10 08:57:18;;;;;;;10.35;1.95;;;;;;;;;;5048863;28;20033;-74
2022/08/10 08:59:47;;;;;;;;;;;;;;;;;;5049598;28;20037;-75
2022/08/10 09:02:49;;;;;;;6.32;2.00;;;;;;;;;;5018413;28;20297;-75
2022/08/10 09:05:21;;;;;;;3.85;1.92;;;;;;;;;;5009003;28;20042;-75
2022/08/10 09:08:17;;;;;;;4.45;1.80;;;;;;;;;;5008814;28;20071;-73
2022/08/10 09:11:00;;;;;;;5.47;1.90;;;;;;;;;;5009085;28;20041;-74
2022/08/10 09:13:48;;;;;;;3.65;1.85;;;;;;;;;;5007778;28;20034;-76
2022/08/10 09:16:41;;;;;;;4.15;1.83;;;;;;;;;;5008274;28;20052;-73
2022/08/10 09:19:43;;;;;;;5.72;2.00;;;;;;;;;;5009114;28;20038;-74
2022/08/10 09:22:20;;;;;;;4.05;2.00;;;;;;;;;;5008826;28;20022;-75
2022/08/10 09:24:58;;;;;;;3.08;1.73;;;;;;;;;;5008911;28;20026;-74
2022/08/10 09:27:42;;;;;;;4.35;1.63;;;;;;;;;;5008842;28;20033;-75
2022/08/10 09:30:09;;;;;;;8.50;1.90;;;;;;;;;;5008536;28;20097;-74
2022/08/10 09:32:52;;;;;;;3.92;1.90;;;;;;;;;;5008395;28;20561;-76
2022/08/10 09:35:44;;;;;;;7.07;1.92;;;;;;;;;;5008430;28;20057;-76
2022/08/10 09:38:47;;;;;;;3.65;1.90;;;;;;;;;;5008508;28;20033;-75
2022/08/10 09:41:28;;;;;;;4.10;1.80;;;;;;;;;;5008706;28;20026;-74
2022/08/10 09:44:19;;;;;;;3.65;1.70;;;;;;;;;;5008616;28;20034;-74
2022/08/10 09:47:03;;;;;;;;;;;;;;;;;;5008723;28;20057;-74
2022/08/10 09:49:43;;;;;;;5.82;2.13;;;;;;;;;;5008422;28;19917;-76
2022/08/10 09:52:11;;;;;;;;;;;;;;;;;;5007413;28;20057;-76
2022/08/10 09:54:54;;;;;;;5.55;1.88;;;;;;;;;;5008433;28;19913;-76
2022/08/10 09:57:55;;;;;;;5.28;1.90;;;;;;;;;;5008334;28;20342;-77
2022/08/10 10:00:39;;;;;;;5.38;1.90;;;;;;;;;;5008382;28;20041;-75
2022/08/10 10:03:54;;;;;;;5.88;2.00;;;;;;;;;;5008159;28;20029;-77
2022/08/10 10:06:37;;;;;;;3.47;1.80;;;;;;;;;;5037311;28;20527;-76
2022/08/10 10:09:23;;;;;;;7.28;2.13;;;;;;;;;;5008030;28;20079;-78
2022/08/10 10:12:20;;;;;;;8.38;1.80;;;;;;;;;;5008280;28;20029;-76
2022/08/10 10:15:19;;;;;;;4.25;1.73;;;;;;;;;;5008189;28;20030;-77
2022/08/10 10:18:15;;;;;;;7.00;1.92;;;;;;;;;;5007891;28;20058;-76
2022/08/10 10:21:04;;;;;;;2.55;1.73;;;;;;;;;;5007984;28;20101;-76
2022/08/10 10:23:41;;;;;;;2.73;1.80;;;;;;;;;;5007745;28;20030;-76
2022/08/10 10:26:13;;;;;;;5.45;2.10;;;;;;;;;;5007824;28;20264;-76
2022/08/10 10:29:06;;;;;;;2.75;1.80;;;;;;;;;;5007137;28;20102;-76
2022/08/10 10:31:44;;;;;;;3.63;1.80;;;;;;;;;;5007866;28;20033;-77
2022/08/10 10:34:36;;;;;;;2.75;1.80;;;;;;;;;;5007722;28;20029;-77
2022/08/10 10:37:05;;;;;;;5.05;1.80;;;;;;;;;;5007464;28;20038;-77
2022/08/10 10:39:32;;;;;;;4.20;1.90;;;;;;;;;;5007920;28;20087;-77
2022/08/10 10:42:23;;;;;;;3.55;1.80;;;;;;;;;;5007350;28;20095;-76
2022/08/10 10:45:13;;;;;;;3.38;1.55;;;;;;;;;;5007351;28;20055;-76
2022/08/10 10:47:52;;;;;;;3.78;1.70;;;;;;;;;;5006050;28;20065;-76
2022/08/10 10:50:56;;;;;;;3.33;1.70;;;;;;;;;;5007670;28;20610;-76
2022/08/10 10:53:29;;;;;;;3.25;1.63;;;;;;;;;;5039996;28;20049;-76
2022/08/10 10:56:30;;;;;;;3.60;1.80;;;;;;;;;;5007430;28;20036;-76
2022/08/10 10:59:26;;;;;;;5.35;1.90;;;;;;;;;;5046986;28;20040;-76
2022/08/10 11:01:57;;;;;;;3.03;1.67;;;;;;;;;;5007515;28;20061;-77
2022/08/10 11:04:30;;;;;;;4.35;1.88;;;;;;;;;;5007058;28;20037;-77
2022/08/10 11:07:01;;;;;;;2.55;1.60;;;;;;;;;;5007167;28;20363;-77
2022/08/10 11:09:38;;;;;;;3.33;1.80;;;;;;;;;;5007472;28;20033;-77
2022/08/10 11:12:32;;;;;;;7.82;1.75;;;;;;;;;;5007350;28;20033;-76
2022/08/10 11:15:05;;;;;;;4.03;1.60;;;;;;;;;;5013656;28;20037;-78
2022/08/10 11:17:41;;;;;;;2.50;1.50;;;;;;;;;;5006962;28;20033;-77
2022/08/10 11:20:28;;;;;;;2.00;1.42;;;;;;;;;;5005966;28;20041;-76
2022/08/10 11:23:16;;;;;;;2.67;1.52;;;;;;;;;;5007027;28;20116;-77
2022/08/10 11:25:48;;;;;;;3.38;1.70;;;;;;;;;;5007138;28;20695;-76
2022/08/10 11:28:24;;;;;;;4.40;1.70;;;;;;;;;;5007071;28;20095;-76
2022/08/10 11:31:15;;;;;;;4.38;1.60;;;;;;;;;;5007009;28;20025;-77
2022/08/10 11:34:02;;;;;;;4.40;1.60;;;;;;;;;;5006975;28;20029;-76
2022/08/10 11:36:51;;;;;;;4.00;1.80;;;;;;;;;;5005435;28;20034;-77
2022/08/10 11:39:35;;;;;;;2.08;1.60;;;;;;;;;;5007003;28;20076;-76
2022/08/10 11:42:20;;;;;;;3.15;1.70;;;;;;;;;;5008994;28;20068;-76
2022/08/10 11:44:55;;;;;;;3.40;1.60;;;;;;;;;;5010432;28;20060;-76
2022/08/10 11:47:32;;;;;;;5.15;1.63;;;;;;;;;;5010293;28;20072;-77
2022/08/10 11:50:16;;;;;;;11.63;1.70;;;;;;;;;;5010153;28;20080;-77
2022/08/10 11:52:55;;;;;;;8.52;1.77;;;;;;;;;;5010036;28;20033;-77
2022/08/10 11:55:24;;;;;;;4.43;1.60;;;;;;;;;;5010290;28;20505;-77
2022/08/10 11:57:57;;;;;;;5.18;1.52;;;;;;;;;;5010120;28;20041;-77
2022/08/10 12:00:24;;;;;;;3.42;1.70;;;;;;;;;;5008922;28;20571;-77
2022/08/10 12:02:57;;;;;;;5.50;1.50;;;;;;;;;;5010189;28;20022;-76
2022/08/10 12:05:29;;;;;;;3.83;1.33;;;;;;;;;;5009849;28;20443;-76
2022/08/10 12:07:57;;;;;;;4.10;1.60;;;;;;;;;;5009603;28;20038;-76
2022/08/10 12:10:24;;;;;;;3.88;1.60;;;;;;;;;;5009902;28;20037;-76
2022/08/10 12:12:53;;;;;;;3.60;1.60;;;;;;;;;;5009801;28;20086;-76
2022/08/10 12:15:26;;;;;;;2.47;1.50;;;;;;;;;;5010117;28;20622;-76
2022/08/10 12:17:57;;;;;;;3.60;1.70;;;;;;;;;;5009687;28;20101;-78
2022/08/10 12:20:36;;;;;;;4.18;1.80;;;;;;;;;;5009883;28;20030;-76
2022/08/10 12:23:15;;;;;;;2.30;1.70;;;;;;;;;;5009582;28;20033;-77
2022/08/10 12:25:51;;;;;;;3.35;1.90;;;;;;;;;;5009595;28;20497;-77
2022/08/10 12:28:35;;;;;;;2.80;2.20;;;;;;;;;;5009446;28;20022;-78
2022/08/10 12:31:06;;;;;;;4.43;2.30;;;;;;;;;;5009510;28;20036;-78
2022/08/10 12:33:37;;;;;;;4.20;2.53;;;;;;;;;;5009732;28;20084;-78
2022/08/10 12:36:13;;;;;;;4.10;2.58;;;;;;;;;;5009410;28;20036;-75
2022/08/10 12:38:57;;;;;;;4.07;2.30;;;;;;;;;;5009459;28;20033;-76
2022/08/10 12:41:28;;;;;;;7.28;2.75;;;;;;;;;;5009486;28;20026;-76
2022/08/10 12:44:13;;;;;;;3.08;2.45;;;;;;;;;;5009288;28;20486;-76
2022/08/10 12:46:57;;;;;;;5.85;3.30;;;;;;;;;;5009453;28;20025;-77
2022/08/10 12:49:50;;;;;;;5.57;4.03;;;;;;;;;;5009264;28;20026;-77
2022/08/10 12:52:26;;;;;;;5.68;4.18;;;;;;;;;;5008923;28;20030;-77
2022/08/10 12:54:55;;;;;;;6.38;4.65;;;;;;;;;;5009316;28;20026;-77
2022/08/10 12:57:23;;;;;;;6.00;5.00;;;;;;;;;;5009286;28;20022;-74
2022/08/10 12:59:56;;;;;;;5.82;4.65;;;;;;;;;;5008861;28;20049;-75
2022/08/10 13:02:26;;;;;;;6.43;4.28;;;;;;;;;;5009069;28;20029;-77
2022/08/10 13:04:54;;;;;;;6.82;4.28;;;;;;;;;;5008757;28;20049;-74
2022/08/10 13:07:26;;;;;;;6.43;4.50;;;;;;;;;;5008994;28;20114;-75
2022/08/10 13:09:52;;;;;;;6.38;4.28;;;;;;;;;;5008882;28;20026;-75
2022/08/10 13:12:19;;;;;;;6.32;4.55;;;;;;;;;;5009288;28;20117;-75
2022/08/10 13:14:51;;;;;;;6.90;4.25;;;;;;;;;;5009002;28;20022;-76
2022/08/10 13:17:27;;;;;;;6.80;4.50;;;;;;;;;;5008971;28;20030;-75
2022/08/10 13:19:54;;;;;;;6.35;4.57;;;;;;;;;;5008556;28;20030;-76
2022/08/10 13:22:24;;;;;;;7.55;4.93;;;;;;;;;;5008694;28;20057;-77
2022/08/10 13:24:51;;;;;;;8.43;5.30;;;;;;;;;;5008894;28;20415;-77
2022/08/10 13:27:22;;;;;;;7.03;5.82;;;;;;;;;;5008861;28;20048;-77
2022/08/10 13:29:53;;;;;;;7.22;5.90;;;;;;;;;;5007398;28;20026;-77
2022/08/10 13:32:26;;;;;;;7.65;6.60;;;;;;;;;;5008739;28;20026;-77
2022/08/10 13:34:55;;;;;;;7.22;6.53;;;;;;;;;;5008539;28;20042;-77
2022/08/10 13:37:24;;;;;;;7.50;6.70;;;;;;;;;;5008267;28;20033;-77
2022/08/10 13:39:52;;;;;;;9.60;6.78;;;;;;;;;;5007296;28;20390;-76
2022/08/10 13:42:20;;;;;;;9.45;7.28;;;;;;;;;;5008531;28;20022;-77
2022/08/10 13:44:53;;;;;;;9.75;7.00;;;;;;;;;;5008505;28;20486;-77
2022/08/10 13:47:29;;;;;;;12.48;7.03;;;;;;;;;;5008626;28;20022;-76
2022/08/10 13:50:02;;;;;;;8.00;7.20;;;;;;;;;;5007111;28;20069;-76
2022/08/10 13:52:28;;;;;;;8.30;5.55;;;;;;;;;;5008285;28;20087;-76
2022/08/10 13:54:57;;;;;;;5.40;4.82;;;;;;;;;;5008166;28;20034;-77
2022/08/10 13:57:35;;;;;;;5.75;4.63;;;;;;;;;;5008301;28;20064;-77
2022/08/10 14:00:05;;;;;;;7.65;4.45;;;;;;;;;;5008179;28;20071;-77
2022/08/10 14:02:46;;;;;;;7.05;4.68;;;;;;;;;;5007605;28;20100;-77
2022/08/10 14:05:11;;;;;;;;;;;;;;;;;;5008651;28;20053;-77
2022/08/10 14:07:43;;;;;;;6.95;5.70;;;;;;;;;;5006742;28;19932;-77
2022/08/10 14:10:11;;;;;;;6.07;5.10;;;;;;;;;;5007901;28;20117;-76
2022/08/10 14:12:41;;;;;;;9.00;5.05;;;;;;;;;;5008113;28;20041;-78
2022/08/10 14:15:12;;;;;;;6.28;5.60;;;;;;;;;;5007974;28;20421;-78
2022/08/10 14:17:40;;;;;;;7.43;5.50;;;;;;;;;;5007887;28;20030;-78
2022/08/10 14:20:07;;;;;;;8.90;6.80;;;;;;;;;;5008044;28;20026;-79
2022/08/10 14:22:36;;;;;;;9.45;5.70;;;;;;;;;;5007882;28;20071;-78
2022/08/10 14:25:13;;;;;;;7.05;5.60;;;;;;;;;;5006681;28;20038;-76
2022/08/10 14:27:42;;;;;;;6.38;5.28;;;;;;;;;;5007825;28;20445;-76
2022/08/10 14:30:08;;;;;;;7.28;5.43;;;;;;;;;;5007583;28;20371;-76
2022/08/10 14:32:43;;;;;;;5.75;5.10;;;;;;;;;;5007675;28;20024;-74
2022/08/10 14:35:10;;;;;;;10.27;6.00;;;;;;;;;;5007876;28;20029;-75
2022/08/10 14:37:38;;;;;;;6.70;6.00;;;;;;;;;;5007481;28;20022;-75
2022/08/10 14:40:12;;;;;;;6.20;5.60;;;;;;;;;;5007653;28;20037;-76
2022/08/10 14:42:57;;;;;;;6.45;5.15;;;;;;;;;;5007540;28;20083;-76
2022/08/10 14:45:27;;;;;;;7.55;6.85;;;;;;;;;;5007601;28;20022;-76
2022/08/10 14:47:58;;;;;;;9.32;6.55;;;;;;;;;;5007454;28;20022;-75
2022/08/10 14:50:27;;;;;;;10.65;7.18;;;;;;;;;;5007524;28;20026;-75
2022/08/10 14:52:54;;;;;;;9.02;7.03;;;;;;;;;;5007442;28;20117;-76
2022/08/10 14:55:22;;;;;;;8.00;7.07;;;;;;;;;;5007491;28;20061;-77
2022/08/10 14:57:48;;;;;;;8.80;6.88;;;;;;;;;;5007632;28;20033;-76
2022/08/10 15:00:14;;;;;;;10.07;7.10;;;;;;;;;;5007352;28;20037;-77
2022/08/10 15:02:43;;;;;;;8.25;6.95;;;;;;;;;;5007306;28;20030;-76
2022/08/10 15:05:10;;;;;;;8.02;7.13;;;;;;;;;;5007145;28;20062;-76
2022/08/10 15:07:36;;;;;;;8.82;7.05;;;;;;;;;;5007144;28;20026;-76
2022/08/10 15:10:05;;;;;;;8.90;6.85;;;;;;;;;;5007154;28;20034;-77
2022/08/10 15:12:33;;;;;;;7.70;6.43;;;;;;;;;;5007343;28;20022;-76
2022/08/10 15:15:01;;;;;;;8.60;6.50;;;;;;;;;;5009339;28;20034;-79
2022/08/10 15:17:33;;;;;;;9.55;6.55;;;;;;;;;;5010867;28;20029;-78